Time;durP1;ratioP1;P1;durP2;ratioP2;P2;SDS_P1;SDS_P2;PMS_P1;PMS_P2;Temp;Humidity;BMP_temperature;BMP_pressure;BME280_temperature;BME280_humidity;BME280_pressure;Samples;Min_cycle;Max_cycle;Signal;HPM_P1;HPM_P2
2020/12/16 00:01:37;;;;;;;33.92;23.30;;;6.30;99.90;;;;;;5054805;28;20033;-68
2020/12/16 00:04:03;;;;;;;36.95;24.77;;;6.30;99.90;;;;;;5053550;28;20025;-68
2020/12/16 00:06:29;;;;;;;31.90;22.85;;;6.30;99.90;;;;;;5054079;28;20368;-67
2020/12/16 00:08:55;;;;;;;44.83;25.50;;;6.30;99.90;;;;;;5053686;28;20025;-67
2020/12/16 00:11:20;;;;;;;38.40;25.63;;;6.30;99.90;;;;;;5053913;28;20017;-67
2020/12/16 00:13:46;;;;;;;39.15;24.90;;;6.40;99.90;;;;;;5052793;28;20028;-67
2020/12/16 00:16:12;;;;;;;43.42;26.10;;;6.30;99.90;;;;;;5053067;28;20025;-68
2020/12/16 00:18:37;;;;;;;40.05;23.45;;;6.30;99.90;;;;;;5053678;28;20491;-67
2020/12/16 00:21:04;;;;;;;48.30;25.50;;;6.30;99.90;;;;;;5053510;28;20033;-67
2020/12/16 00:23:30;;;;;;;84.90;25.83;;;6.30;99.90;;;;;;5052805;28;20025;-68
2020/12/16 00:25:56;;;;;;;30.17;21.90;;;6.20;99.90;;;;;;5053550;28;20025;-68
2020/12/16 00:28:23;;;;;;;30.60;20.88;;;6.20;99.90;;;;;;5053255;28;20474;-67
2020/12/16 00:30:48;;;;;;;29.88;20.00;;;6.20;99.90;;;;;;5053173;28;20092;-69
2020/12/16 00:33:18;;;;;;;28.92;20.58;;;6.10;99.90;;;;;;5052595;28;20100;-68
2020/12/16 00:35:45;;;;;;;28.25;21.30;;;6.10;99.90;;;;;;5053269;28;20017;-68
2020/12/16 00:38:11;;;;;;;25.67;20.05;;;6.10;99.90;;;;;;5053239;28;20368;-68
2020/12/16 00:40:38;;;;;;;27.77;20.15;;;6.10;99.90;;;;;;5053350;28;20024;-68
2020/12/16 00:43:04;;;;;;;28.25;20.17;;;6.10;99.90;;;;;;5052512;28;20029;-68
2020/12/16 00:45:29;;;;;;;25.48;20.27;;;6.20;99.90;;;;;;5052805;28;20071;-68
2020/12/16 00:47:55;;;;;;;35.72;22.42;;;6.20;99.90;;;;;;5052812;28;20028;-68
2020/12/16 00:50:21;;;;;;;31.67;20.85;;;6.20;99.90;;;;;;5052859;28;20537;-68
2020/12/16 00:52:46;;;;;;;28.27;20.58;;;6.20;99.90;;;;;;5052289;28;20585;-68
2020/12/16 00:55:12;;;;;;;26.98;21.25;;;6.10;99.90;;;;;;5053017;28;20436;-68
2020/12/16 00:57:38;;;;;;;33.00;21.25;;;6.00;99.90;;;;;;5053030;28;20036;-67
2020/12/16 01:00:09;;;;;;;26.52;19.23;;;6.10;99.90;;;;;;5052454;28;20108;-67
2020/12/16 01:02:41;;;;;;;58.95;22.55;;;6.00;99.90;;;;;;5052699;28;20032;-68
2020/12/16 01:05:07;;;;;;;35.35;21.73;;;6.10;99.90;;;;;;5052944;28;20028;-68
2020/12/16 01:07:33;;;;;;;30.40;23.23;;;6.00;99.90;;;;;;5052737;28;20167;-68
2020/12/16 01:09:58;;;;;;;27.67;20.63;;;6.00;99.90;;;;;;5051713;28;20091;-68
2020/12/16 01:12:24;;;;;;;56.90;24.60;;;5.80;99.90;;;;;;5052503;28;20151;-68
2020/12/16 01:14:50;;;;;;;37.50;21.83;;;5.90;99.90;;;;;;5051645;28;20029;-67
2020/12/16 01:17:15;;;;;;;30.63;22.13;;;5.80;99.90;;;;;;5052189;28;20379;-68
2020/12/16 01:19:41;;;;;;;40.13;23.27;;;5.80;99.90;;;;;;5052147;28;20044;-68
2020/12/16 01:22:07;;;;;;;29.08;21.10;;;5.80;99.90;;;;;;5052351;28;20036;-68
2020/12/16 01:24:32;;;;;;;26.95;20.17;;;5.80;99.90;;;;;;5051483;28;20032;-68
2020/12/16 01:26:58;;;;;;;32.20;22.00;;;5.80;99.90;;;;;;5052266;28;20029;-68
2020/12/16 01:29:24;;;;;;;85.18;25.05;;;5.70;99.90;;;;;;5052169;28;20029;-68
2020/12/16 01:31:50;;;;;;;76.43;26.27;;;5.80;99.90;;;;;;5052118;28;20095;-67
2020/12/16 01:34:21;;;;;;;80.88;25.88;;;5.80;99.90;;;;;;5051422;28;20025;-68
2020/12/16 01:36:49;;;;;;;54.58;25.10;;;5.80;99.90;;;;;;5052605;28;20029;-68
2020/12/16 01:39:15;;;;;;;112.43;28.13;;;5.70;99.90;;;;;;5052988;28;20399;-68
2020/12/16 01:41:43;;;;;;;60.80;25.55;;;5.70;99.90;;;;;;5054051;28;20028;-68
2020/12/16 01:44:14;;;;;;;57.45;25.05;;;5.60;99.90;;;;;;5051627;28;20494;-68
2020/12/16 01:46:48;;;;;;;74.80;27.10;;;5.70;99.90;;;;;;5051723;28;20029;-68
2020/12/16 01:49:14;;;;;;;31.83;22.40;;;5.70;99.90;;;;;;5051934;28;20078;-68
2020/12/16 01:51:41;;;;;;;111.57;30.02;;;5.60;99.90;;;;;;5051978;28;20024;-68
2020/12/16 01:54:09;;;;;;;32.97;22.13;;;5.60;99.90;;;;;;5051429;28;20425;-68
2020/12/16 01:56:39;;;;;;;48.15;25.58;;;5.70;99.90;;;;;;5052009;28;20498;-68
2020/12/16 01:59:08;;;;;;;44.60;22.67;;;5.60;99.90;;;;;;5051594;28;20032;-68
2020/12/16 02:01:35;;;;;;;36.75;23.90;;;5.60;99.90;;;;;;5051533;28;20025;-68
2020/12/16 02:04:02;;;;;;;53.13;25.55;;;5.50;99.90;;;;;;5051059;28;20024;-67
2020/12/16 02:06:32;;;;;;;83.53;24.92;;;5.60;99.90;;;;;;5052138;28;20029;-68
2020/12/16 02:09:04;;;;;;;53.60;25.30;;;5.60;99.90;;;;;;5051336;28;20036;-68
2020/12/16 02:11:30;;;;;;;42.97;24.70;;;5.60;99.90;;;;;;5051747;28;20414;-67
2020/12/16 02:13:56;;;;;;;89.72;25.85;;;5.60;99.90;;;;;;5050710;28;20029;-68
2020/12/16 02:16:22;;;;;;;87.35;26.98;;;5.60;99.90;;;;;;5051394;28;20025;-68
2020/12/16 02:18:47;;;;;;;35.42;21.83;;;5.60;99.90;;;;;;5051284;28;20033;-67
2020/12/16 02:21:14;;;;;;;47.28;20.27;;;5.60;99.90;;;;;;5051419;28;20108;-68
2020/12/16 02:23:44;;;;;;;37.38;20.13;;;5.50;99.90;;;;;;5050677;28;20508;-68
2020/12/16 02:26:10;;;;;;;32.60;18.63;;;5.40;99.90;;;;;;5051151;28;20078;-67
2020/12/16 02:28:36;;;;;;;36.28;19.63;;;5.50;99.90;;;;;;5051333;28;20430;-68
2020/12/16 02:31:02;;;;;;;65.88;19.75;;;5.50;99.90;;;;;;5050746;28;20029;-68
2020/12/16 02:33:28;;;;;;;41.08;19.50;;;5.50;99.90;;;;;;5050636;28;20032;-68
2020/12/16 02:35:53;;;;;;;60.60;21.55;;;5.50;99.90;;;;;;5051209;28;20029;-67
2020/12/16 02:38:19;;;;;;;49.50;21.02;;;5.60;99.90;;;;;;5051292;28;20108;-70
2020/12/16 02:40:45;;;;;;;39.63;21.33;;;5.60;99.90;;;;;;5051128;28;20025;-68
2020/12/16 02:43:10;;;;;;;34.92;18.15;;;5.60;99.90;;;;;;5050461;28;20058;-68
2020/12/16 02:45:36;;;;;;;36.50;18.50;;;5.60;99.90;;;;;;5050892;28;20041;-68
2020/12/16 02:48:02;;;;;;;53.42;21.23;;;5.60;99.90;;;;;;5050946;28;20154;-67
2020/12/16 02:50:27;;;;;;;59.22;22.15;;;5.50;99.90;;;;;;5051090;28;20025;-68
2020/12/16 02:52:53;;;;;;;47.13;21.70;;;5.60;99.90;;;;;;5050439;28;20483;-68
2020/12/16 02:55:19;;;;;;;36.00;19.30;;;5.60;99.90;;;;;;5050855;28;20578;-68
2020/12/16 02:57:45;;;;;;;36.00;18.90;;;5.60;99.90;;;;;;5051016;28;20039;-68
2020/12/16 03:00:10;;;;;;;33.97;17.48;;;5.50;99.90;;;;;;5050853;28;20029;-68
2020/12/16 03:02:36;;;;;;;43.83;15.98;;;5.50;99.90;;;;;;5050605;28;20521;-68
2020/12/16 03:05:02;;;;;;;64.07;17.45;;;5.40;99.90;;;;;;5050875;28;20025;-68
2020/12/16 03:07:28;;;;;;;29.20;15.63;;;5.50;99.90;;;;;;5050966;28;20067;-67
2020/12/16 03:09:54;;;;;;;56.53;18.05;;;5.50;99.90;;;;;;5050490;28;20068;-67
2020/12/16 03:12:19;;;;;;;38.40;16.90;;;5.40;99.90;;;;;;5050871;28;20126;-68
2020/12/16 03:14:45;;;;;;;54.42;18.45;;;5.40;99.90;;;;;;5050118;28;20018;-67
2020/12/16 03:17:12;;;;;;;36.65;18.60;;;5.50;99.90;;;;;;5050535;28;20017;-68
2020/12/16 03:19:38;;;;;;;36.55;18.20;;;5.50;99.90;;;;;;5050733;28;20029;-68
2020/12/16 03:22:03;;;;;;;38.83;17.98;;;5.50;99.90;;;;;;5050681;28;20541;-68
2020/12/16 03:24:29;;;;;;;38.60;18.48;;;5.60;99.90;;;;;;5049994;28;20470;-68
2020/12/16 03:26:55;;;;;;;36.97;17.60;;;5.60;99.90;;;;;;5050613;28;20033;-68
2020/12/16 03:29:21;;;;;;;37.47;17.80;;;5.60;99.90;;;;;;5050481;28;20057;-67
2020/12/16 03:31:47;;;;;;;62.38;20.30;;;5.60;99.90;;;;;;5049134;28;20134;-67
2020/12/16 03:34:12;;;;;;;48.63;18.40;;;5.60;99.90;;;;;;5052653;28;20024;-68
2020/12/16 03:36:38;;;;;;;37.95;17.80;;;5.60;99.90;;;;;;5054444;28;20017;-68
2020/12/16 03:39:04;;;;;;;33.92;17.15;;;5.50;99.90;;;;;;5054068;28;20028;-68
2020/12/16 03:41:30;;;;;;;38.63;16.58;;;5.50;99.90;;;;;;5054215;28;20020;-68
2020/12/16 03:43:56;;;;;;;47.63;18.30;;;5.60;99.90;;;;;;5053539;28;20031;-69
2020/12/16 03:46:22;;;;;;;40.85;16.58;;;5.60;99.90;;;;;;5053860;28;20025;-67
2020/12/16 03:48:47;;;;;;;40.33;18.75;;;5.70;99.90;;;;;;5053854;28;20067;-67
2020/12/16 03:51:14;;;;;;;39.03;18.58;;;5.60;99.90;;;;;;5054097;28;20087;-68
2020/12/16 03:53:41;;;;;;;39.20;18.63;;;5.60;99.90;;;;;;5052970;28;20029;-67
2020/12/16 03:56:11;;;;;;;37.42;18.95;;;5.60;99.90;;;;;;5050333;28;20052;-68
2020/12/16 03:58:43;;;;;;;39.95;18.05;;;5.60;99.90;;;;;;5033943;28;20034;-68
2020/12/16 04:01:09;;;;;;;;;;;5.60;99.90;;;;;;5034076;28;20018;-68
2020/12/16 04:03:35;;;;;;;40.28;17.67;;;5.60;99.90;;;;;;5033142;28;19905;-68
2020/12/16 04:06:01;;;;;;;40.08;18.23;;;5.70;99.90;;;;;;5033901;28;20084;-68
2020/12/16 04:08:27;;;;;;;39.10;16.83;;;5.70;99.90;;;;;;5032111;28;20116;-70
2020/12/16 04:10:53;;;;;;;40.63;16.88;;;5.60;99.90;;;;;;5033741;28;20104;-70
2020/12/16 04:13:18;;;;;;;41.85;17.35;;;5.70;99.90;;;;;;5033046;28;20061;-69
2020/12/16 04:15:45;;;;;;;35.50;16.98;;;5.60;99.90;;;;;;5033497;28;20014;-69
2020/12/16 04:18:10;;;;;;;33.60;15.93;;;5.60;99.90;;;;;;5033578;28;20075;-69
2020/12/16 04:20:37;;;;;;;32.22;15.10;;;5.50;99.90;;;;;;5033858;28;20021;-69
2020/12/16 04:23:04;;;;;;;30.60;13.65;;;5.50;99.90;;;;;;5033010;28;20017;-69
2020/12/16 04:25:30;;;;;;;32.20;14.18;;;5.50;99.90;;;;;;5033686;28;20021;-70
2020/12/16 04:27:56;;;;;;;31.88;15.13;;;5.50;99.90;;;;;;5031281;28;20407;-69
2020/12/16 04:30:21;;;;;;;31.05;14.55;;;5.50;99.90;;;;;;5033363;28;20037;-69
2020/12/16 04:32:51;;;;;;;29.45;13.40;;;5.50;99.90;;;;;;5032596;28;20127;-70
2020/12/16 04:35:18;;;;;;;31.38;14.65;;;5.50;99.90;;;;;;5033225;28;20020;-68
2020/12/16 04:37:50;;;;;;;41.05;15.05;;;5.40;99.90;;;;;;5033288;28;20022;-70
2020/12/16 04:40:16;;;;;;;;;;;5.30;99.90;;;;;;5033705;28;20022;-69
2020/12/16 04:42:42;;;;;;;27.60;13.65;;;5.30;99.90;;;;;;5032649;28;20283;-69
2020/12/16 04:45:09;;;;;;;34.15;15.35;;;5.30;99.90;;;;;;5031913;28;20033;-69
2020/12/16 04:47:35;;;;;;;29.95;14.27;;;5.30;99.90;;;;;;5032936;28;20029;-70
2020/12/16 04:50:05;;;;;;;41.50;15.15;;;5.30;99.90;;;;;;5032804;28;20026;-68
2020/12/16 04:52:31;;;;;;;34.15;15.43;;;5.30;99.90;;;;;;5033070;28;20427;-68
2020/12/16 04:54:58;;;;;;;31.77;14.80;;;5.30;99.90;;;;;;5031085;28;20246;-67
2020/12/16 04:57:23;;;;;;;33.97;14.73;;;5.30;99.90;;;;;;5046994;28;20111;-69
2020/12/16 04:59:55;;;;;;;32.63;15.15;;;5.30;99.90;;;;;;5052783;28;20104;-69
2020/12/16 05:02:20;;;;;;;34.15;14.05;;;5.30;99.90;;;;;;5052493;28;20021;-69
2020/12/16 05:04:47;;;;;;;50.10;15.45;;;5.40;99.90;;;;;;5051898;28;20024;-69
2020/12/16 05:07:28;;;;;;;29.45;13.70;;;5.30;99.90;;;;;;5052694;28;20098;-69
2020/12/16 05:09:54;;;;;;;28.75;13.63;;;5.20;99.90;;;;;;5052340;28;20112;-67
2020/12/16 05:12:20;;;;;;;26.33;13.13;;;5.20;99.90;;;;;;5052502;28;20049;-69
2020/12/16 05:14:46;;;;;;;35.65;14.13;;;5.20;99.90;;;;;;5051497;28;20041;-69
2020/12/16 05:17:11;;;;;;;35.10;13.20;;;5.20;99.90;;;;;;5052086;28;20021;-69
2020/12/16 05:19:45;;;;;;;31.65;14.70;;;5.10;99.90;;;;;;5052442;28;20036;-69
2020/12/16 05:22:31;;;;;;;32.10;14.25;;;5.20;99.90;;;;;;5052291;28;20031;-69
2020/12/16 05:25:00;;;;;;;30.33;14.35;;;5.20;99.90;;;;;;5041219;28;20088;-71
2020/12/16 05:27:27;;;;;;;37.55;15.85;;;5.30;99.90;;;;;;5033162;28;20022;-69
2020/12/16 05:29:57;;;;;;;39.03;16.70;;;5.40;99.90;;;;;;5031661;28;20040;-69
2020/12/16 05:32:36;;;;;;;38.55;16.38;;;5.30;99.90;;;;;;5030186;28;20056;-69
2020/12/16 05:35:23;;;;;;;33.60;16.60;;;5.30;99.90;;;;;;5031865;28;20021;-68
2020/12/16 05:37:49;;;;;;;34.83;15.77;;;5.20;99.90;;;;;;5031612;28;20021;-68
2020/12/16 05:40:18;;;;;;;33.22;15.02;;;5.10;99.90;;;;;;5030317;28;20044;-67
2020/12/16 05:42:50;;;;;;;32.90;15.85;;;5.10;99.90;;;;;;5031271;28;20033;-68
2020/12/16 05:45:21;;;;;;;34.08;15.52;;;5.10;99.90;;;;;;5031764;28;20033;-68
2020/12/16 05:48:10;;;;;;;60.85;17.17;;;5.20;99.90;;;;;;5031321;28;20041;-68
2020/12/16 05:50:46;;;;;;;35.08;16.60;;;5.30;99.90;;;;;;5031615;28;20032;-69
2020/12/16 05:53:16;;;;;;;32.20;14.98;;;5.30;99.90;;;;;;5030974;28;20032;-69
2020/12/16 05:55:42;;;;;;;38.30;16.98;;;5.20;99.90;;;;;;5031174;28;20041;-68
2020/12/16 05:58:10;;;;;;;44.63;17.10;;;5.20;99.90;;;;;;5029905;28;20035;-69
2020/12/16 06:00:46;;;;;;;43.55;17.17;;;5.20;99.90;;;;;;5031403;28;20022;-70
2020/12/16 06:03:23;;;;;;;41.42;16.10;;;5.10;99.90;;;;;;5030530;28;20075;-69
2020/12/16 06:06:08;;;;;;;29.75;15.45;;;5.10;99.90;;;;;;5031664;28;20017;-69
2020/12/16 06:08:42;;;;;;;40.72;18.20;;;5.00;99.90;;;;;;5030624;28;20065;-70
2020/12/16 06:11:10;;;;;;;42.60;17.27;;;5.30;99.90;;;;;;5030722;28;20033;-71
2020/12/16 06:13:36;;;;;;;38.97;17.83;;;5.50;99.90;;;;;;5030568;28;20566;-71
2020/12/16 06:16:04;;;;;;;38.78;16.70;;;5.60;99.90;;;;;;5030982;28;20030;-72
2020/12/16 06:18:32;;;;;;;39.25;17.33;;;5.60;99.90;;;;;;5031234;28;20021;-71
2020/12/16 06:20:58;;;;;;;35.80;17.63;;;5.70;99.90;;;;;;5027917;28;21604;-70
2020/12/16 06:23:30;;;;;;;30.38;16.27;;;5.70;99.90;;;;;;5034608;28;20018;-71
2020/12/16 06:25:58;;;;;;;30.92;15.82;;;5.50;99.90;;;;;;5031908;28;20033;-70
2020/12/16 06:28:24;;;;;;;27.88;14.93;;;5.50;99.90;;;;;;5051371;28;20033;-70
2020/12/16 06:31:11;;;;;;;30.27;15.68;;;5.40;99.90;;;;;;5051190;28;20029;-70
2020/12/16 06:33:41;;;;;;;43.83;16.88;;;5.40;99.90;;;;;;5050476;28;20025;-70
2020/12/16 06:36:09;;;;;;;30.33;15.70;;;5.50;99.90;;;;;;5049477;28;20017;-71
2020/12/16 06:38:47;;;;;;;38.15;17.40;;;5.50;99.90;;;;;;5050844;28;20059;-72
2020/12/16 06:41:19;;;;;;;32.58;16.48;;;5.50;99.90;;;;;;5049642;28;20053;-70
2020/12/16 06:43:46;;;;;;;42.08;16.98;;;5.40;99.90;;;;;;5049215;28;20028;-71
2020/12/16 06:46:33;;;;;;;35.33;16.55;;;5.40;99.90;;;;;;5060020;28;20029;-70
2020/12/16 06:49:04;;;;;;;36.17;17.40;;;5.40;99.90;;;;;;5060749;28;20075;-72
2020/12/16 06:51:30;;;;;;;38.42;17.88;;;5.50;99.90;;;;;;5047048;28;20047;-72
2020/12/16 06:54:14;;;;;;;36.95;17.73;;;5.50;99.90;;;;;;5028142;28;20634;-71
2020/12/16 06:56:41;;;;;;;32.40;16.05;;;5.50;99.90;;;;;;5030094;28;20495;-71
2020/12/16 06:59:07;;;;;;;32.10;15.70;;;5.50;99.90;;;;;;5010499;28;20431;-71
2020/12/16 07:01:33;;;;;;;37.15;17.65;;;5.50;99.90;;;;;;5010701;28;20092;-70
2020/12/16 07:04:00;;;;;;;32.10;16.55;;;5.50;99.90;;;;;;5020801;28;20026;-70
2020/12/16 07:06:28;;;;;;;49.33;18.75;;;5.50;99.90;;;;;;5031050;28;20106;-71
2020/12/16 07:09:13;;;;;;;37.90;16.33;;;5.60;99.90;;;;;;5032160;28;20025;-69
2020/12/16 07:11:42;;;;;;;37.97;16.95;;;5.60;99.90;;;;;;5034594;28;20024;-70
2020/12/16 07:14:19;;;;;;;33.22;14.75;;;5.60;99.90;;;;;;5034012;28;20104;-70
2020/12/16 07:16:46;;;;;;;38.20;16.85;;;5.60;99.90;;;;;;5033411;28;20361;-70
2020/12/16 07:19:24;;;;;;;36.88;16.92;;;5.60;99.90;;;;;;5034508;28;20018;-71
2020/12/16 07:21:50;;;;;;;36.55;16.55;;;5.50;99.90;;;;;;5034907;28;20543;-71
2020/12/16 07:24:16;;;;;;;38.25;16.75;;;5.50;99.90;;;;;;5033673;28;20060;-71
2020/12/16 07:27:00;;;;;;;50.92;17.27;;;5.50;99.90;;;;;;5042902;28;20109;-70
2020/12/16 07:29:34;;;;;;;39.20;17.33;;;5.60;99.90;;;;;;5054452;28;20029;-71
2020/12/16 07:32:07;;;;;;;33.42;17.25;;;5.50;99.90;;;;;;5041395;28;20499;-71
2020/12/16 07:34:43;;;;;;;34.00;16.85;;;5.40;99.90;;;;;;5033295;28;20021;-72
2020/12/16 07:37:09;;;;;;;44.40;17.52;;;5.40;99.90;;;;;;5032864;28;20022;-72
2020/12/16 07:39:44;;;;;;;33.45;17.30;;;5.40;99.90;;;;;;5033850;28;20026;-71
2020/12/16 07:42:10;;;;;;;35.88;15.85;;;5.40;99.90;;;;;;5032975;28;20029;-71
2020/12/16 07:44:42;;;;;;;32.55;16.20;;;5.50;99.90;;;;;;5033133;28;20032;-71
2020/12/16 07:47:08;;;;;;;39.80;17.13;;;5.50;99.90;;;;;;5035504;28;20418;-71
2020/12/16 07:49:38;;;;;;;30.58;16.10;;;5.60;99.90;;;;;;5034415;28;20026;-72
2020/12/16 07:52:04;;;;;;;33.78;16.80;;;5.50;99.90;;;;;;5034439;28;20502;-71
2020/12/16 07:54:30;;;;;;;35.78;17.20;;;5.40;99.90;;;;;;5033400;28;20029;-71
2020/12/16 07:56:56;;;;;;;43.33;18.05;;;5.50;99.90;;;;;;5044038;28;20024;-71
2020/12/16 07:59:30;;;;;;;37.95;18.25;;;5.50;99.90;;;;;;5053960;28;20029;-71
2020/12/16 08:02:16;;;;;;;32.15;16.42;;;5.50;99.90;;;;;;5053654;28;20021;-71
2020/12/16 08:04:43;;;;;;;35.75;16.55;;;5.60;99.90;;;;;;5053216;28;20332;-72
2020/12/16 08:07:19;;;;;;;34.85;18.13;;;5.60;99.90;;;;;;5053901;28;20021;-71
2020/12/16 08:10:00;;;;;;;39.50;18.80;;;5.70;99.90;;;;;;5053311;28;20447;-71
2020/12/16 08:12:27;;;;;;;39.15;18.25;;;5.70;99.90;;;;;;5053870;28;20475;-71
2020/12/16 08:15:19;;;;;;;37.53;18.30;;;5.70;99.90;;;;;;5052945;28;20029;-72
2020/12/16 08:17:47;;;;;;;33.00;17.52;;;5.80;99.90;;;;;;5052878;28;20429;-71
2020/12/16 08:20:15;;;;;;;31.83;16.58;;;5.90;99.90;;;;;;5053116;28;20043;-71
2020/12/16 08:22:44;;;;;;;35.53;17.83;;;6.00;99.90;;;;;;5052661;28;20471;-71
2020/12/16 08:25:11;;;;;;;31.45;17.50;;;6.00;99.90;;;;;;5053022;28;20103;-72
2020/12/16 08:27:48;;;;;;;25.85;14.85;;;6.00;99.90;;;;;;5053555;28;20078;-71
2020/12/16 08:30:16;;;;;;;27.35;16.00;;;6.10;99.90;;;;;;5052596;28;20395;-72
2020/12/16 08:32:57;;;;;;;30.50;17.45;;;6.30;99.90;;;;;;5052314;28;20104;-72
2020/12/16 08:35:28;;;;;;;29.27;16.42;;;6.60;99.90;;;;;;5053091;28;20069;-71
2020/12/16 08:37:56;;;;;;;34.38;16.67;;;6.60;99.90;;;;;;5052533;28;20479;-71
2020/12/16 08:40:22;;;;;;;32.90;15.77;;;6.80;99.90;;;;;;5053151;28;20483;-71
2020/12/16 08:42:49;;;;;;;29.42;14.00;;;6.70;99.90;;;;;;5052093;28;20033;-71
2020/12/16 08:45:18;;;;;;;39.80;14.65;;;6.60;99.90;;;;;;5052603;28;20025;-71
2020/12/16 08:47:44;;;;;;;26.10;13.30;;;6.60;99.90;;;;;;5052972;28;20029;-71
2020/12/16 08:50:16;;;;;;;18.45;12.20;;;7.00;99.90;;;;;;5052594;28;20518;-71
2020/12/16 08:52:47;;;;;;;28.50;12.27;;;6.80;99.90;;;;;;5052232;28;20509;-71
2020/12/16 08:55:18;;;;;;;33.53;12.15;;;6.70;99.90;;;;;;5052841;28;20025;-70
2020/12/16 08:58:14;;;;;;;51.38;12.65;;;7.10;99.90;;;;;;5052585;28;20375;-72
2020/12/16 09:00:40;;;;;;;14.73;10.85;;;7.70;99.90;;;;;;5051650;28;20103;-72
2020/12/16 09:03:07;;;;;;;17.35;12.57;;;7.10;99.90;;;;;;5051669;28;20459;-72
2020/12/16 09:05:36;;;;;;;15.73;11.80;;;7.40;99.90;;;;;;5053536;28;20028;-72
2020/12/16 09:08:05;;;;;;;18.45;11.48;;;7.60;99.90;;;;;;5052495;28;20021;-71
2020/12/16 09:10:35;;;;;;;15.18;10.48;;;7.50;99.90;;;;;;5051964;28;20601;-71
2020/12/16 09:13:13;;;;;;;15.13;10.18;;;7.70;99.90;;;;;;5051554;28;20021;-71
2020/12/16 09:15:42;;;;;;;17.88;11.10;;;7.70;99.90;;;;;;5052149;28;20024;-71
2020/12/16 09:18:09;;;;;;;14.00;10.35;;;8.00;99.90;;;;;;5052002;28;20028;-72
2020/12/16 09:20:35;;;;;;;15.63;11.77;;;7.90;99.90;;;;;;5051494;28;20116;-71
2020/12/16 09:23:00;;;;;;;16.17;11.90;;;7.90;99.90;;;;;;5050982;28;20171;-72
2020/12/16 09:25:26;;;;;;;18.67;12.43;;;7.90;99.90;;;;;;5051795;28;20050;-72
2020/12/16 09:27:57;;;;;;;15.65;11.40;;;8.20;99.90;;;;;;5052048;28;20025;-72
2020/12/16 09:30:33;;;;;;;17.38;11.65;;;8.90;99.90;;;;;;5051355;28;20025;-72
2020/12/16 09:33:15;;;;;;;13.88;10.18;;;10.10;99.90;;;;;;5051099;28;20025;-71
2020/12/16 09:35:42;;;;;;;12.52;10.23;;;12.20;99.90;;;;;;5052030;28;20044;-71
2020/12/16 09:38:18;;;;;;;12.05;10.43;;;13.50;99.90;;;;;;5051968;28;20031;-72
2020/12/16 09:40:45;;;;;;;11.90;10.10;;;15.00;99.90;;;;;;5052590;28;20036;-72
2020/12/16 09:43:11;;;;;;;14.10;11.32;;;14.40;99.90;;;;;;5051613;28;20017;-71
2020/12/16 09:45:40;;;;;;;12.98;10.35;;;13.70;99.90;;;;;;5050535;28;20028;-71
2020/12/16 09:48:07;;;;;;;11.13;9.77;;;13.00;99.90;;;;;;5051713;28;20490;-72
2020/12/16 09:50:37;;;;;;;11.75;9.70;;;12.40;99.90;;;;;;5051744;28;20029;-72
2020/12/16 09:53:04;;;;;;;12.23;10.13;;;12.60;99.90;;;;;;5051291;28;20020;-72
2020/12/16 09:55:35;;;;;;;13.10;9.95;;;12.80;99.90;;;;;;5057835;28;20017;-71
2020/12/16 09:58:06;;;;;;;14.77;10.23;;;13.10;99.90;;;;;;5058548;28;20085;-72
2020/12/16 10:00:33;;;;;;;12.98;10.05;;;13.40;99.90;;;;;;5052872;28;20566;-71
2020/12/16 10:03:01;;;;;;;11.75;10.27;;;14.60;99.90;;;;;;5050880;28;20064;-71
2020/12/16 10:05:28;;;;;;;10.15;9.10;;;16.90;99.90;;;;;;5051627;28;20539;-72
2020/12/16 10:07:54;;;;;;;11.93;8.88;;;17.40;99.90;;;;;;5051665;28;20025;-72
2020/12/16 10:10:21;;;;;;;10.57;8.95;;;17.60;99.90;;;;;;5051194;28;20025;-72
2020/12/16 10:12:47;;;;;;;10.45;9.32;;;18.00;99.90;;;;;;5049268;28;20552;-72
2020/12/16 10:15:13;;;;;;;10.50;9.43;;;17.40;99.50;;;;;;5051204;28;20028;-72
2020/12/16 10:17:39;;;;;;;12.25;10.68;;;15.80;99.90;;;;;;5051026;28;20017;-72
2020/12/16 10:20:06;;;;;;;11.30;10.15;;;16.60;99.90;;;;;;5051740;28;20028;-72
2020/12/16 10:22:33;;;;;;;13.95;11.00;;;15.90;99.90;;;;;;5051400;28;20471;-71
2020/12/16 10:24:59;;;;;;;13.93;10.02;;;15.40;99.90;;;;;;5050378;28;20090;-73
2020/12/16 10:27:28;;;;;;;11.73;10.52;;;15.00;99.90;;;;;;5049805;28;20039;-71
2020/12/16 10:29:58;;;;;;;14.75;10.73;;;15.40;99.90;;;;;;5021190;28;20018;-71
2020/12/16 10:32:25;;;;;;;24.90;10.55;;;14.70;99.90;;;;;;5023994;28;20022;-70
2020/12/16 10:34:53;;;;;;;18.15;9.82;;;12.50;99.90;;;;;;5012094;28;20021;-71
2020/12/16 10:37:20;;;;;;;34.15;10.48;;;11.60;99.90;;;;;;5028338;28;20045;-70
2020/12/16 10:39:46;;;;;;;13.35;10.30;;;11.10;99.90;;;;;;5031697;28;20017;-69
2020/12/16 10:42:12;;;;;;;43.22;12.27;;;11.50;99.90;;;;;;5037078;28;20146;-71
2020/12/16 10:44:38;;;;;;;38.15;12.23;;;11.70;99.90;;;;;;5047606;28;20025;-72
2020/12/16 10:47:03;;;;;;;16.23;11.65;;;11.50;99.90;;;;;;5049913;28;20384;-70
2020/12/16 10:49:29;;;;;;;22.65;12.65;;;11.30;99.90;;;;;;5043431;28;20052;-71
2020/12/16 10:51:55;;;;;;;13.55;10.82;;;11.40;99.90;;;;;;5043075;28;20045;-71
2020/12/16 10:54:22;;;;;;;72.63;13.43;;;10.60;99.90;;;;;;5046088;28;20458;-70
2020/12/16 10:56:54;;;;;;;28.60;12.98;;;11.10;99.90;;;;;;5055798;28;20246;-70
2020/12/16 10:59:21;;;;;;;85.47;13.43;;;11.40;99.90;;;;;;5058914;28;20428;-68
2020/12/16 11:01:46;;;;;;;17.13;11.07;;;11.60;99.90;;;;;;5055009;28;20044;-69
2020/12/16 11:04:12;;;;;;;32.28;10.98;;;11.20;99.90;;;;;;5054079;28;20028;-69
2020/12/16 11:06:44;;;;;;;20.38;11.00;;;11.20;99.90;;;;;;5054616;28;20032;-71
2020/12/16 11:09:10;;;;;;;17.75;10.93;;;11.30;99.90;;;;;;5054453;28;20132;-71
2020/12/16 11:11:47;;;;;;;17.38;11.00;;;11.60;99.90;;;;;;5055131;28;20109;-72
2020/12/16 11:14:12;;;;;;;56.33;11.55;;;12.30;99.90;;;;;;5054200;28;20100;-71
2020/12/16 11:16:40;;;;;;;19.20;11.30;;;12.70;99.90;;;;;;5053680;28;20106;-72
2020/12/16 11:19:08;;;;;;;24.63;11.88;;;12.40;99.90;;;;;;5033917;28;20040;-72
2020/12/16 11:21:45;;;;;;;14.05;10.52;;;12.00;99.90;;;;;;5034192;28;20476;-72
2020/12/16 11:24:12;;;;;;;11.52;9.27;;;14.20;99.90;;;;;;5033717;28;20487;-69
2020/12/16 11:26:48;;;;;;;8.68;7.68;;;17.20;99.90;;;;;;5042228;28;20056;-70
2020/12/16 11:29:16;;;;;;;11.00;8.27;;;19.50;99.90;;;;;;5054067;28;20020;-70
2020/12/16 11:31:47;;;;;;;9.48;8.50;;;21.70;94.40;;;;;;5054264;28;20029;-68
2020/12/16 11:34:15;;;;;;;8.63;7.75;;;23.50;90.60;;;;;;5051905;28;20032;-69
2020/12/16 11:36:43;;;;;;;9.15;8.15;;;24.40;84.90;;;;;;5045477;28;20020;-70
2020/12/16 11:39:10;;;;;;;10.25;8.38;;;25.30;77.90;;;;;;5034518;28;20021;-70
2020/12/16 11:41:40;;;;;;;9.80;8.90;;;25.50;75.50;;;;;;5034385;28;20480;-69
2020/12/16 11:44:05;;;;;;;12.63;10.32;;;25.70;73.10;;;;;;5033392;28;20041;-69
2020/12/16 11:46:31;;;;;;;10.65;9.50;;;26.20;71.30;;;;;;5034039;28;20030;-69
2020/12/16 11:48:58;;;;;;;11.65;9.80;;;26.50;67.80;;;;;;5033405;28;20026;-69
2020/12/16 11:51:25;;;;;;;10.45;9.38;;;26.70;66.10;;;;;;5034050;28;20431;-69
2020/12/16 11:53:51;;;;;;;12.23;10.80;;;27.40;64.20;;;;;;5032431;28;20025;-71
2020/12/16 11:56:16;;;;;;;11.57;10.10;;;27.70;61.90;;;;;;5039041;28;20170;-71
2020/12/16 11:58:42;;;;;;;11.00;9.35;;;27.70;61.30;;;;;;5053698;28;20025;-71
2020/12/16 12:01:14;;;;;;;11.00;9.90;;;27.60;59.90;;;;;;5053765;28;20552;-71
2020/12/16 12:03:39;;;;;;;10.40;9.40;;;27.40;61.00;;;;;;5053003;28;20025;-70
2020/12/16 12:06:10;;;;;;;10.77;9.77;;;27.80;60.00;;;;;;5053468;28;20100;-70
2020/12/16 12:08:36;;;;;;;10.35;9.32;;;27.80;59.30;;;;;;5053699;28;20080;-71
2020/12/16 12:11:02;;;;;;;11.20;9.30;;;27.60;58.90;;;;;;5053439;28;20730;-71
2020/12/16 12:13:27;;;;;;;10.68;9.63;;;26.50;60.70;;;;;;5040095;28;20022;-70
2020/12/16 12:15:53;;;;;;;12.82;9.60;;;25.00;64.20;;;;;;5033787;28;20104;-70
2020/12/16 12:18:19;;;;;;;10.75;9.65;;;23.00;70.00;;;;;;5033263;28;20041;-70
2020/12/16 12:20:44;;;;;;;10.88;9.48;;;21.80;74.50;;;;;;5033771;28;20025;-71
2020/12/16 12:23:10;;;;;;;10.95;9.77;;;21.10;77.50;;;;;;5032647;28;20091;-70
2020/12/16 12:25:36;;;;;;;14.25;10.05;;;21.00;78.10;;;;;;5033431;28;20034;-71
2020/12/16 12:28:02;;;;;;;14.60;9.55;;;21.30;78.00;;;;;;5052757;28;20111;-71
2020/12/16 12:30:28;;;;;;;12.57;8.43;;;21.10;77.20;;;;;;5053118;28;20029;-69
2020/12/16 12:32:53;;;;;;;8.02;7.22;;;20.10;79.90;;;;;;5052258;28;20091;-70
2020/12/16 12:35:19;;;;;;;7.07;6.38;;;21.30;81.10;;;;;;5053208;28;20027;-69
2020/12/16 12:37:45;;;;;;;9.80;6.10;;;23.00;76.10;;;;;;5053081;28;20028;-69
2020/12/16 12:40:10;;;;;;;6.93;5.68;;;24.40;71.10;;;;;;5053154;28;20024;-70
2020/12/16 12:42:36;;;;;;;5.93;5.32;;;24.90;67.60;;;;;;5033556;28;20041;-69